sensor_id;sensor_type;location;lat;lon;timestamp;P1;durP1;ratioP1;P2;durP2;ratioP2
4756;SDS011;2392;52.578;13.426;2023-07-08T00:00:24;8.77;;;7.90;;
4756;SDS011;2392;52.578;13.426;2023-07-08T00:02:52;8.80;;;7.97;;
4756;SDS011;2392;52.578;13.426;2023-07-08T00:05:20;10.77;;;9.73;;
4756;SDS011;2392;52.578;13.426;2023-07-08T00:07:49;15.57;;;8.00;;
4756;SDS011;2392;52.578;13.426;2023-07-08T00:10:16;9.10;;;8.30;;
4756;SDS011;2392;52.578;13.426;2023-07-08T00:12:48;10.70;;;7.10;;
4756;SDS011;2392;52.578;13.426;2023-07-08T00:15:17;9.73;;;8.07;;
4756;SDS011;2392;52.578;13.426;2023-07-08T00:17:44;8.77;;;7.33;;
4756;SDS011;2392;52.578;13.426;2023-07-08T00:20:12;11.73;;;7.43;;
4756;SDS011;2392;52.578;13.426;2023-07-08T00:22:43;8.33;;;7.20;;
4756;SDS011;2392;52.578;13.426;2023-07-08T00:25:12;9.23;;;7.47;;
4756;SDS011;2392;52.578;13.426;2023-07-08T00:27:40;8.60;;;7.10;;
4756;SDS011;2392;52.578;13.426;2023-07-08T00:30:19;8.67;;;7.87;;
4756;SDS011;2392;52.578;13.426;2023-07-08T00:32:48;11.73;;;8.03;;
4756;SDS011;2392;52.578;13.426;2023-07-08T00:35:19;7.40;;;6.80;;
4756;SDS011;2392;52.578;13.426;2023-07-08T00:37:48;9.93;;;7.73;;
4756;SDS011;2392;52.578;13.426;2023-07-08T00:40:18;8.23;;;7.30;;
4756;SDS011;2392;52.578;13.426;2023-07-08T00:42:46;9.83;;;7.33;;
4756;SDS011;2392;52.578;13.426;2023-07-08T00:45:21;8.77;;;7.20;;
4756;SDS011;2392;52.578;13.426;2023-07-08T00:47:59;8.20;;;6.90;;
4756;SDS011;2392;52.578;13.426;2023-07-08T00:50:31;8.30;;;6.83;;
4756;SDS011;2392;52.578;13.426;2023-07-08T00:55:49;11.37;;;7.47;;
4756;SDS011;2392;52.578;13.426;2023-07-08T00:58:17;7.93;;;7.23;;
4756;SDS011;2392;52.578;13.426;2023-07-08T01:00:50;7.83;;;7.13;;
4756;SDS011;2392;52.578;13.426;2023-07-08T01:03:19;8.80;;;6.90;;
4756;SDS011;2392;52.578;13.426;2023-07-08T01:05:46;10.00;;;7.13;;
4756;SDS011;2392;52.578;13.426;2023-07-08T01:08:14;12.20;;;8.10;;
4756;SDS011;2392;52.578;13.426;2023-07-08T01:10:43;8.10;;;6.87;;
4756;SDS011;2392;52.578;13.426;2023-07-08T01:13:15;7.87;;;7.17;;
4756;SDS011;2392;52.578;13.426;2023-07-08T01:15:44;8.30;;;7.60;;
4756;SDS011;2392;52.578;13.426;2023-07-08T01:18:15;8.20;;;7.50;;
4756;SDS011;2392;52.578;13.426;2023-07-08T01:20:46;14.80;;;7.97;;
4756;SDS011;2392;52.578;13.426;2023-07-08T01:23:15;12.17;;;7.80;;
4756;SDS011;2392;52.578;13.426;2023-07-08T01:25:44;8.60;;;7.80;;
4756;SDS011;2392;52.578;13.426;2023-07-08T01:28:12;9.87;;;6.77;;
4756;SDS011;2392;52.578;13.426;2023-07-08T01:30:40;9.57;;;7.20;;
4756;SDS011;2392;52.578;13.426;2023-07-08T01:33:12;8.40;;;7.27;;
4756;SDS011;2392;52.578;13.426;2023-07-08T01:35:42;8.77;;;7.87;;
4756;SDS011;2392;52.578;13.426;2023-07-08T01:38:12;7.60;;;6.83;;
4756;SDS011;2392;52.578;13.426;2023-07-08T01:40:50;8.83;;;7.50;;
4756;SDS011;2392;52.578;13.426;2023-07-08T01:43:18;7.13;;;6.43;;
4756;SDS011;2392;52.578;13.426;2023-07-08T01:45:45;10.07;;;7.03;;
4756;SDS011;2392;52.578;13.426;2023-07-08T01:48:18;7.07;;;6.40;;
4756;SDS011;2392;52.578;13.426;2023-07-08T01:50:47;9.57;;;6.63;;
4756;SDS011;2392;52.578;13.426;2023-07-08T01:53:20;12.50;;;7.03;;
4756;SDS011;2392;52.578;13.426;2023-07-08T01:55:54;7.73;;;6.53;;
4756;SDS011;2392;52.578;13.426;2023-07-08T01:58:21;8.53;;;6.67;;
4756;SDS011;2392;52.578;13.426;2023-07-08T02:00:49;7.40;;;6.63;;
4756;SDS011;2392;52.578;13.426;2023-07-08T02:03:16;6.37;;;5.73;;
4756;SDS011;2392;52.578;13.426;2023-07-08T02:05:44;10.30;;;7.20;;
4756;SDS011;2392;52.578;13.426;2023-07-08T02:08:11;11.20;;;6.20;;
4756;SDS011;2392;52.578;13.426;2023-07-08T02:10:40;7.27;;;6.60;;
4756;SDS011;2392;52.578;13.426;2023-07-08T02:13:08;6.37;;;5.90;;
4756;SDS011;2392;52.578;13.426;2023-07-08T02:15:35;6.63;;;6.13;;
4756;SDS011;2392;52.578;13.426;2023-07-08T02:18:02;10.50;;;6.33;;
4756;SDS011;2392;52.578;13.426;2023-07-08T02:20:29;6.43;;;5.83;;
4756;SDS011;2392;52.578;13.426;2023-07-08T02:22:56;7.13;;;6.40;;
4756;SDS011;2392;52.578;13.426;2023-07-08T02:25:23;6.90;;;6.30;;
4756;SDS011;2392;52.578;13.426;2023-07-08T02:27:51;7.30;;;6.60;;
4756;SDS011;2392;52.578;13.426;2023-07-08T02:30:20;6.43;;;5.90;;
4756;SDS011;2392;52.578;13.426;2023-07-08T02:32:47;7.83;;;6.60;;
4756;SDS011;2392;52.578;13.426;2023-07-08T02:35:22;6.33;;;5.83;;
4756;SDS011;2392;52.578;13.426;2023-07-08T02:37:50;7.30;;;6.70;;
4756;SDS011;2392;52.578;13.426;2023-07-08T02:40:17;7.20;;;6.27;;
4756;SDS011;2392;52.578;13.426;2023-07-08T02:42:44;6.63;;;6.13;;
4756;SDS011;2392;52.578;13.426;2023-07-08T02:45:13;7.13;;;6.43;;
4756;SDS011;2392;52.578;13.426;2023-07-08T02:47:40;18.57;;;7.13;;
4756;SDS011;2392;52.578;13.426;2023-07-08T02:50:07;7.60;;;6.93;;
4756;SDS011;2392;52.578;13.426;2023-07-08T02:52:35;7.20;;;6.50;;
4756;SDS011;2392;52.578;13.426;2023-07-08T02:55:02;7.23;;;6.53;;
4756;SDS011;2392;52.578;13.426;2023-07-08T02:57:30;7.97;;;7.00;;
4756;SDS011;2392;52.578;13.426;2023-07-08T02:59:57;6.70;;;6.20;;
4756;SDS011;2392;52.578;13.426;2023-07-08T03:02:25;7.50;;;6.80;;
4756;SDS011;2392;52.578;13.426;2023-07-08T03:04:52;7.17;;;6.57;;
4756;SDS011;2392;52.578;13.426;2023-07-08T03:07:20;8.20;;;7.13;;
4756;SDS011;2392;52.578;13.426;2023-07-08T03:09:47;7.70;;;6.57;;
4756;SDS011;2392;52.578;13.426;2023-07-08T03:12:14;7.13;;;6.63;;
4756;SDS011;2392;52.578;13.426;2023-07-08T03:14:41;7.70;;;7.13;;
4756;SDS011;2392;52.578;13.426;2023-07-08T03:17:08;7.03;;;6.43;;
4756;SDS011;2392;52.578;13.426;2023-07-08T03:19:36;7.27;;;6.53;;
4756;SDS011;2392;52.578;13.426;2023-07-08T03:22:03;7.30;;;6.70;;
4756;SDS011;2392;52.578;13.426;2023-07-08T03:24:32;8.90;;;7.17;;
4756;SDS011;2392;52.578;13.426;2023-07-08T03:27:01;7.63;;;7.03;;
4756;SDS011;2392;52.578;13.426;2023-07-08T03:29:32;8.13;;;7.47;;
4756;SDS011;2392;52.578;13.426;2023-07-08T03:32:00;7.53;;;6.73;;
4756;SDS011;2392;52.578;13.426;2023-07-08T03:34:27;8.20;;;7.40;;
4756;SDS011;2392;52.578;13.426;2023-07-08T03:36:56;8.67;;;7.87;;
4756;SDS011;2392;52.578;13.426;2023-07-08T03:39:23;8.27;;;7.47;;
4756;SDS011;2392;52.578;13.426;2023-07-08T03:41:51;8.10;;;7.40;;
4756;SDS011;2392;52.578;13.426;2023-07-08T03:44:19;8.33;;;6.87;;
4756;SDS011;2392;52.578;13.426;2023-07-08T03:46:47;8.20;;;6.87;;
4756;SDS011;2392;52.578;13.426;2023-07-08T03:49:17;7.43;;;6.90;;
4756;SDS011;2392;52.578;13.426;2023-07-08T03:51:47;6.73;;;6.27;;
4756;SDS011;2392;52.578;13.426;2023-07-08T03:54:18;7.77;;;7.13;;
4756;SDS011;2392;52.578;13.426;2023-07-08T03:56:46;7.63;;;6.70;;
4756;SDS011;2392;52.578;13.426;2023-07-08T03:59:13;7.73;;;6.80;;
4756;SDS011;2392;52.578;13.426;2023-07-08T04:01:41;6.33;;;5.83;;
4756;SDS011;2392;52.578;13.426;2023-07-08T04:04:10;7.10;;;6.50;;
4756;SDS011;2392;52.578;13.426;2023-07-08T04:06:41;11.23;;;7.43;;
4756;SDS011;2392;52.578;13.426;2023-07-08T04:09:08;7.27;;;6.70;;
4756;SDS011;2392;52.578;13.426;2023-07-08T04:11:37;8.13;;;7.30;;
4756;SDS011;2392;52.578;13.426;2023-07-08T04:14:04;8.00;;;7.03;;
4756;SDS011;2392;52.578;13.426;2023-07-08T04:16:42;7.20;;;6.70;;
4756;SDS011;2392;52.578;13.426;2023-07-08T04:19:12;7.10;;;6.60;;
4756;SDS011;2392;52.578;13.426;2023-07-08T04:21:41;7.73;;;6.97;;
4756;SDS011;2392;52.578;13.426;2023-07-08T04:24:09;8.00;;;7.20;;
4756;SDS011;2392;52.578;13.426;2023-07-08T04:26:38;7.87;;;7.17;;
4756;SDS011;2392;52.578;13.426;2023-07-08T04:29:07;7.30;;;6.70;;
4756;SDS011;2392;52.578;13.426;2023-07-08T04:31:37;7.43;;;6.90;;
4756;SDS011;2392;52.578;13.426;2023-07-08T04:34:04;7.90;;;7.30;;
4756;SDS011;2392;52.578;13.426;2023-07-08T04:36:32;6.87;;;6.27;;
4756;SDS011;2392;52.578;13.426;2023-07-08T04:38:59;7.17;;;6.57;;
4756;SDS011;2392;52.578;13.426;2023-07-08T04:41:26;6.87;;;6.47;;
4756;SDS011;2392;52.578;13.426;2023-07-08T04:43:54;7.20;;;6.63;;
4756;SDS011;2392;52.578;13.426;2023-07-08T04:46:25;7.87;;;6.83;;
4756;SDS011;2392;52.578;13.426;2023-07-08T04:49:00;7.40;;;6.90;;
4756;SDS011;2392;52.578;13.426;2023-07-08T04:51:28;7.77;;;7.00;;
4756;SDS011;2392;52.578;13.426;2023-07-08T04:53:55;7.27;;;6.57;;
4756;SDS011;2392;52.578;13.426;2023-07-08T04:56:22;8.57;;;7.73;;
4756;SDS011;2392;52.578;13.426;2023-07-08T04:58:51;8.70;;;7.07;;
4756;SDS011;2392;52.578;13.426;2023-07-08T05:01:19;9.13;;;8.23;;
4756;SDS011;2392;52.578;13.426;2023-07-08T05:03:47;10.60;;;7.70;;
4756;SDS011;2392;52.578;13.426;2023-07-08T05:06:15;6.50;;;6.10;;
4756;SDS011;2392;52.578;13.426;2023-07-08T05:08:42;13.23;;;7.53;;
4756;SDS011;2392;52.578;13.426;2023-07-08T05:11:10;7.20;;;6.70;;
4756;SDS011;2392;52.578;13.426;2023-07-08T05:13:36;7.27;;;6.67;;
4756;SDS011;2392;52.578;13.426;2023-07-08T05:16:04;9.13;;;7.00;;
4756;SDS011;2392;52.578;13.426;2023-07-08T05:18:32;7.93;;;7.17;;
4756;SDS011;2392;52.578;13.426;2023-07-08T05:20:59;8.30;;;7.50;;
4756;SDS011;2392;52.578;13.426;2023-07-08T05:23:28;7.00;;;6.40;;
4756;SDS011;2392;52.578;13.426;2023-07-08T05:25:58;7.43;;;6.93;;
4756;SDS011;2392;52.578;13.426;2023-07-08T05:28:26;7.57;;;7.00;;
4756;SDS011;2392;52.578;13.426;2023-07-08T05:30:53;7.47;;;6.63;;
4756;SDS011;2392;52.578;13.426;2023-07-08T05:33:20;8.63;;;7.17;;
4756;SDS011;2392;52.578;13.426;2023-07-08T05:35:49;7.00;;;6.50;;
4756;SDS011;2392;52.578;13.426;2023-07-08T05:38:16;6.90;;;6.40;;
4756;SDS011;2392;52.578;13.426;2023-07-08T05:40:43;7.73;;;6.77;;
4756;SDS011;2392;52.578;13.426;2023-07-08T05:43:15;7.17;;;6.60;;
4756;SDS011;2392;52.578;13.426;2023-07-08T05:45:42;7.93;;;7.33;;
4756;SDS011;2392;52.578;13.426;2023-07-08T05:48:09;6.67;;;6.17;;
4756;SDS011;2392;52.578;13.426;2023-07-08T05:50:36;6.83;;;6.30;;
4756;SDS011;2392;52.578;13.426;2023-07-08T05:53:05;7.30;;;6.60;;
4756;SDS011;2392;52.578;13.426;2023-07-08T05:55:35;6.80;;;6.20;;
4756;SDS011;2392;52.578;13.426;2023-07-08T05:58:02;7.77;;;6.93;;
4756;SDS011;2392;52.578;13.426;2023-07-08T06:00:29;6.70;;;6.13;;
4756;SDS011;2392;52.578;13.426;2023-07-08T06:02:56;6.00;;;5.60;;
4756;SDS011;2392;52.578;13.426;2023-07-08T06:05:23;6.23;;;5.63;;
4756;SDS011;2392;52.578;13.426;2023-07-08T06:07:52;6.90;;;6.50;;
4756;SDS011;2392;52.578;13.426;2023-07-08T06:10:20;6.73;;;6.23;;
4756;SDS011;2392;52.578;13.426;2023-07-08T06:12:47;8.57;;;6.70;;
4756;SDS011;2392;52.578;13.426;2023-07-08T06:15:14;6.60;;;6.10;;
4756;SDS011;2392;52.578;13.426;2023-07-08T06:17:41;8.17;;;6.97;;
4756;SDS011;2392;52.578;13.426;2023-07-08T06:20:08;6.67;;;6.17;;
4756;SDS011;2392;52.578;13.426;2023-07-08T06:22:36;6.50;;;6.10;;
4756;SDS011;2392;52.578;13.426;2023-07-08T06:25:03;6.40;;;5.80;;
4756;SDS011;2392;52.578;13.426;2023-07-08T06:27:32;5.90;;;5.60;;
4756;SDS011;2392;52.578;13.426;2023-07-08T06:29:59;7.23;;;5.97;;
4756;SDS011;2392;52.578;13.426;2023-07-08T06:32:26;7.00;;;6.50;;
4756;SDS011;2392;52.578;13.426;2023-07-08T06:34:53;6.03;;;5.50;;
4756;SDS011;2392;52.578;13.426;2023-07-08T06:37:20;6.03;;;5.63;;
4756;SDS011;2392;52.578;13.426;2023-07-08T06:39:47;6.50;;;5.90;;
4756;SDS011;2392;52.578;13.426;2023-07-08T06:42:14;6.30;;;5.80;;
4756;SDS011;2392;52.578;13.426;2023-07-08T06:44:51;7.07;;;6.50;;
4756;SDS011;2392;52.578;13.426;2023-07-08T06:47:19;5.80;;;5.40;;
4756;SDS011;2392;52.578;13.426;2023-07-08T06:49:47;6.33;;;5.83;;
4756;SDS011;2392;52.578;13.426;2023-07-08T06:52:14;6.73;;;6.23;;
4756;SDS011;2392;52.578;13.426;2023-07-08T06:54:41;6.17;;;5.60;;
4756;SDS011;2392;52.578;13.426;2023-07-08T06:57:08;6.67;;;6.27;;
4756;SDS011;2392;52.578;13.426;2023-07-08T06:59:36;9.43;;;6.23;;
4756;SDS011;2392;52.578;13.426;2023-07-08T07:02:05;6.00;;;5.40;;
4756;SDS011;2392;52.578;13.426;2023-07-08T07:04:32;9.60;;;6.07;;
4756;SDS011;2392;52.578;13.426;2023-07-08T07:07:00;8.63;;;5.67;;
4756;SDS011;2392;52.578;13.426;2023-07-08T07:09:27;6.00;;;5.60;;
4756;SDS011;2392;52.578;13.426;2023-07-08T07:11:54;17.77;;;6.60;;
4756;SDS011;2392;52.578;13.426;2023-07-08T07:14:21;6.40;;;5.83;;
4756;SDS011;2392;52.578;13.426;2023-07-08T07:16:48;5.90;;;5.50;;
4756;SDS011;2392;52.578;13.426;2023-07-08T07:19:16;6.33;;;5.80;;
4756;SDS011;2392;52.578;13.426;2023-07-08T07:21:43;6.00;;;5.60;;
4756;SDS011;2392;52.578;13.426;2023-07-08T07:24:10;6.37;;;5.87;;
4756;SDS011;2392;52.578;13.426;2023-07-08T07:26:38;5.97;;;5.53;;
4756;SDS011;2392;52.578;13.426;2023-07-08T07:29:05;6.10;;;5.70;;
4756;SDS011;2392;52.578;13.426;2023-07-08T07:31:32;7.93;;;6.10;;
4756;SDS011;2392;52.578;13.426;2023-07-08T07:33:59;6.10;;;5.60;;
4756;SDS011;2392;52.578;13.426;2023-07-08T07:36:28;7.13;;;5.90;;
4756;SDS011;2392;52.578;13.426;2023-07-08T07:38:55;5.47;;;5.10;;
4756;SDS011;2392;52.578;13.426;2023-07-08T07:41:22;6.03;;;5.70;;
4756;SDS011;2392;52.578;13.426;2023-07-08T07:43:49;5.93;;;5.50;;
4756;SDS011;2392;52.578;13.426;2023-07-08T07:46:16;6.20;;;5.70;;
4756;SDS011;2392;52.578;13.426;2023-07-08T07:48:44;6.37;;;5.67;;
4756;SDS011;2392;52.578;13.426;2023-07-08T07:51:11;8.17;;;6.50;;
4756;SDS011;2392;52.578;13.426;2023-07-08T07:53:40;6.30;;;5.80;;
4756;SDS011;2392;52.578;13.426;2023-07-08T07:56:07;9.57;;;5.80;;
4756;SDS011;2392;52.578;13.426;2023-07-08T07:58:34;5.40;;;5.10;;
4756;SDS011;2392;52.578;13.426;2023-07-08T08:01:01;5.67;;;5.37;;
4756;SDS011;2392;52.578;13.426;2023-07-08T08:03:28;6.30;;;5.70;;
4756;SDS011;2392;52.578;13.426;2023-07-08T08:05:56;6.40;;;5.90;;
4756;SDS011;2392;52.578;13.426;2023-07-08T08:08:23;5.70;;;5.20;;
4756;SDS011;2392;52.578;13.426;2023-07-08T08:10:51;4.97;;;4.57;;
4756;SDS011;2392;52.578;13.426;2023-07-08T08:13:18;6.10;;;5.50;;
4756;SDS011;2392;52.578;13.426;2023-07-08T08:15:45;5.83;;;5.43;;
4756;SDS011;2392;52.578;13.426;2023-07-08T08:18:12;5.87;;;5.33;;
4756;SDS011;2392;52.578;13.426;2023-07-08T08:20:39;6.63;;;5.57;;
4756;SDS011;2392;52.578;13.426;2023-07-08T08:23:06;5.67;;;5.13;;
4756;SDS011;2392;52.578;13.426;2023-07-08T08:25:33;6.13;;;5.47;;
4756;SDS011;2392;52.578;13.426;2023-07-08T08:28:01;5.20;;;4.80;;
4756;SDS011;2392;52.578;13.426;2023-07-08T08:30:28;5.70;;;5.30;;
4756;SDS011;2392;52.578;13.426;2023-07-08T08:32:55;5.57;;;5.27;;
4756;SDS011;2392;52.578;13.426;2023-07-08T08:35:22;5.10;;;4.73;;
4756;SDS011;2392;52.578;13.426;2023-07-08T08:37:49;5.77;;;5.30;;
4756;SDS011;2392;52.578;13.426;2023-07-08T08:40:17;5.60;;;5.00;;
4756;SDS011;2392;52.578;13.426;2023-07-08T08:42:45;5.23;;;4.93;;
4756;SDS011;2392;52.578;13.426;2023-07-08T08:45:20;9.43;;;5.40;;
4756;SDS011;2392;52.578;13.426;2023-07-08T08:47:51;5.00;;;4.70;;
4756;SDS011;2392;52.578;13.426;2023-07-08T08:50:26;6.00;;;5.50;;
4756;SDS011;2392;52.578;13.426;2023-07-08T08:52:57;8.43;;;5.33;;
4756;SDS011;2392;52.578;13.426;2023-07-08T08:55:26;5.20;;;4.90;;
4756;SDS011;2392;52.578;13.426;2023-07-08T08:57:57;4.93;;;4.63;;
4756;SDS011;2392;52.578;13.426;2023-07-08T09:00:46;4.80;;;4.40;;
4756;SDS011;2392;52.578;13.426;2023-07-08T09:03:21;4.77;;;4.37;;
4756;SDS011;2392;52.578;13.426;2023-07-08T09:05:59;5.37;;;4.97;;
4756;SDS011;2392;52.578;13.426;2023-07-08T09:08:31;4.93;;;4.60;;
4756;SDS011;2392;52.578;13.426;2023-07-08T09:11:03;5.50;;;5.20;;
4756;SDS011;2392;52.578;13.426;2023-07-08T09:13:36;4.50;;;4.20;;
4756;SDS011;2392;52.578;13.426;2023-07-08T09:16:06;6.77;;;4.80;;
4756;SDS011;2392;52.578;13.426;2023-07-08T09:18:41;5.43;;;5.03;;
4756;SDS011;2392;52.578;13.426;2023-07-08T09:21:15;5.30;;;4.70;;
4756;SDS011;2392;52.578;13.426;2023-07-08T09:23:46;5.30;;;4.83;;
4756;SDS011;2392;52.578;13.426;2023-07-08T09:26:16;5.10;;;4.63;;
4756;SDS011;2392;52.578;13.426;2023-07-08T09:28:48;4.73;;;4.43;;
4756;SDS011;2392;52.578;13.426;2023-07-08T09:31:20;5.13;;;4.73;;
4756;SDS011;2392;52.578;13.426;2023-07-08T09:33:50;4.63;;;4.33;;
4756;SDS011;2392;52.578;13.426;2023-07-08T09:36:18;5.03;;;4.53;;
4756;SDS011;2392;52.578;13.426;2023-07-08T09:38:49;4.40;;;4.10;;
4756;SDS011;2392;52.578;13.426;2023-07-08T09:41:27;6.13;;;4.50;;
4756;SDS011;2392;52.578;13.426;2023-07-08T09:46:52;4.50;;;4.20;;
4756;SDS011;2392;52.578;13.426;2023-07-08T09:49:21;5.70;;;4.50;;
4756;SDS011;2392;52.578;13.426;2023-07-08T09:51:51;5.40;;;4.40;;
4756;SDS011;2392;52.578;13.426;2023-07-08T09:54:18;5.30;;;4.90;;
4756;SDS011;2392;52.578;13.426;2023-07-08T09:56:50;4.73;;;4.23;;
4756;SDS011;2392;52.578;13.426;2023-07-08T09:59:22;4.80;;;4.40;;
4756;SDS011;2392;52.578;13.426;2023-07-08T10:01:58;4.97;;;4.10;;
4756;SDS011;2392;52.578;13.426;2023-07-08T10:04:26;4.30;;;4.10;;
4756;SDS011;2392;52.578;13.426;2023-07-08T10:06:54;4.60;;;4.30;;
4756;SDS011;2392;52.578;13.426;2023-07-08T10:09:23;4.57;;;4.27;;
4756;SDS011;2392;52.578;13.426;2023-07-08T10:11:52;4.60;;;4.30;;
4756;SDS011;2392;52.578;13.426;2023-07-08T10:14:25;4.67;;;4.27;;
4756;SDS011;2392;52.578;13.426;2023-07-08T10:16:56;4.10;;;3.90;;
4756;SDS011;2392;52.578;13.426;2023-07-08T10:19:23;5.03;;;4.07;;
4756;SDS011;2392;52.578;13.426;2023-07-08T10:21:51;4.77;;;4.37;;
4756;SDS011;2392;52.578;13.426;2023-07-08T10:24:30;9.10;;;4.40;;
4756;SDS011;2392;52.578;13.426;2023-07-08T10:27:15;4.23;;;4.03;;
4756;SDS011;2392;52.578;13.426;2023-07-08T10:29:51;4.87;;;4.47;;
4756;SDS011;2392;52.578;13.426;2023-07-08T10:32:27;4.67;;;4.37;;
4756;SDS011;2392;52.578;13.426;2023-07-08T10:35:03;4.57;;;4.17;;
4756;SDS011;2392;52.578;13.426;2023-07-08T10:37:42;4.77;;;4.07;;
4756;SDS011;2392;52.578;13.426;2023-07-08T10:40:31;5.20;;;4.80;;
4756;SDS011;2392;52.578;13.426;2023-07-08T10:43:16;6.73;;;4.30;;
4756;SDS011;2392;52.578;13.426;2023-07-08T10:46:01;6.30;;;3.60;;
4756;SDS011;2392;52.578;13.426;2023-07-08T10:51:37;4.37;;;3.97;;
4756;SDS011;2392;52.578;13.426;2023-07-08T10:54:18;3.90;;;3.57;;
4756;SDS011;2392;52.578;13.426;2023-07-08T10:57:00;3.80;;;3.60;;
4756;SDS011;2392;52.578;13.426;2023-07-08T10:59:44;3.80;;;3.50;;
4756;SDS011;2392;52.578;13.426;2023-07-08T11:02:26;4.30;;;3.90;;
4756;SDS011;2392;52.578;13.426;2023-07-08T11:05:25;3.70;;;3.40;;
4756;SDS011;2392;52.578;13.426;2023-07-08T11:07:58;2.93;;;2.87;;
4756;SDS011;2392;52.578;13.426;2023-07-08T11:10:31;3.70;;;3.40;;
4756;SDS011;2392;52.578;13.426;2023-07-08T11:13:05;3.40;;;3.20;;
4756;SDS011;2392;52.578;13.426;2023-07-08T11:15:40;3.67;;;3.47;;
4756;SDS011;2392;52.578;13.426;2023-07-08T11:18:14;3.38;;;3.28;;
4756;SDS011;2392;52.578;13.426;2023-07-08T11:20:49;4.18;;;3.97;;
4756;SDS011;2392;52.578;13.426;2023-07-08T11:23:23;3.67;;;3.47;;
4756;SDS011;2392;52.578;13.426;2023-07-08T11:25:59;4.25;;;3.95;;
4756;SDS011;2392;52.578;13.426;2023-07-08T11:28:33;3.50;;;3.40;;
4756;SDS011;2392;52.578;13.426;2023-07-08T11:31:01;3.45;;;3.33;;
4756;SDS011;2392;52.578;13.426;2023-07-08T11:33:30;3.60;;;3.50;;
4756;SDS011;2392;52.578;13.426;2023-07-08T11:36:01;3.60;;;3.43;;
4756;SDS011;2392;52.578;13.426;2023-07-08T11:38:31;3.90;;;3.70;;
4756;SDS011;2392;52.578;13.426;2023-07-08T11:41:00;3.67;;;3.47;;
4756;SDS011;2392;52.578;13.426;2023-07-08T11:43:33;3.87;;;3.60;;
4756;SDS011;2392;52.578;13.426;2023-07-08T11:46:03;3.80;;;3.60;;
4756;SDS011;2392;52.578;13.426;2023-07-08T11:48:35;4.23;;;4.03;;
4756;SDS011;2392;52.578;13.426;2023-07-08T11:51:08;3.70;;;3.60;;
4756;SDS011;2392;52.578;13.426;2023-07-08T11:53:46;5.10;;;4.13;;
4756;SDS011;2392;52.578;13.426;2023-07-08T11:56:18;4.27;;;3.97;;
4756;SDS011;2392;52.578;13.426;2023-07-08T11:58:52;4.57;;;4.27;;
4756;SDS011;2392;52.578;13.426;2023-07-08T12:01:32;4.70;;;4.30;;
4756;SDS011;2392;52.578;13.426;2023-07-08T12:04:25;4.60;;;4.13;;
4756;SDS011;2392;52.578;13.426;2023-07-08T12:07:08;4.60;;;4.30;;
4756;SDS011;2392;52.578;13.426;2023-07-08T12:09:44;4.47;;;4.17;;
4756;SDS011;2392;52.578;13.426;2023-07-08T12:12:17;4.10;;;3.90;;
4756;SDS011;2392;52.578;13.426;2023-07-08T12:14:50;4.23;;;4.03;;
4756;SDS011;2392;52.578;13.426;2023-07-08T12:17:20;4.30;;;4.10;;
4756;SDS011;2392;52.578;13.426;2023-07-08T12:19:47;4.73;;;4.43;;
4756;SDS011;2392;52.578;13.426;2023-07-08T12:22:18;4.67;;;4.17;;
4756;SDS011;2392;52.578;13.426;2023-07-08T12:24:47;4.93;;;4.53;;
4756;SDS011;2392;52.578;13.426;2023-07-08T12:27:14;4.20;;;4.00;;
4756;SDS011;2392;52.578;13.426;2023-07-08T12:29:41;4.73;;;4.53;;
4756;SDS011;2392;52.578;13.426;2023-07-08T12:32:10;5.23;;;4.83;;
4756;SDS011;2392;52.578;13.426;2023-07-08T12:34:39;4.33;;;4.13;;
4756;SDS011;2392;52.578;13.426;2023-07-08T12:37:09;4.67;;;4.33;;
4756;SDS011;2392;52.578;13.426;2023-07-08T12:39:40;4.77;;;4.47;;
4756;SDS011;2392;52.578;13.426;2023-07-08T12:42:10;5.00;;;4.00;;
4756;SDS011;2392;52.578;13.426;2023-07-08T12:44:38;5.03;;;4.73;;
4756;SDS011;2392;52.578;13.426;2023-07-08T12:47:09;4.90;;;4.60;;
4756;SDS011;2392;52.578;13.426;2023-07-08T12:49:36;4.70;;;4.40;;
4756;SDS011;2392;52.578;13.426;2023-07-08T12:52:03;4.93;;;4.57;;
4756;SDS011;2392;52.578;13.426;2023-07-08T12:54:31;4.80;;;4.40;;
4756;SDS011;2392;52.578;13.426;2023-07-08T12:57:00;5.43;;;4.57;;
4756;SDS011;2392;52.578;13.426;2023-07-08T12:59:27;4.17;;;3.97;;
4756;SDS011;2392;52.578;13.426;2023-07-08T13:01:56;5.17;;;4.87;;
4756;SDS011;2392;52.578;13.426;2023-07-08T13:04:24;5.40;;;5.10;;
4756;SDS011;2392;52.578;13.426;2023-07-08T13:06:53;4.90;;;4.60;;
4756;SDS011;2392;52.578;13.426;2023-07-08T13:09:28;5.07;;;4.67;;
4756;SDS011;2392;52.578;13.426;2023-07-08T13:12:05;5.20;;;4.90;;
4756;SDS011;2392;52.578;13.426;2023-07-08T13:14:39;6.40;;;4.63;;
4756;SDS011;2392;52.578;13.426;2023-07-08T13:17:10;5.20;;;4.30;;
4756;SDS011;2392;52.578;13.426;2023-07-08T13:19:39;4.67;;;4.30;;
4756;SDS011;2392;52.578;13.426;2023-07-08T13:22:08;4.60;;;4.20;;
4756;SDS011;2392;52.578;13.426;2023-07-08T13:24:38;4.87;;;4.57;;
4756;SDS011;2392;52.578;13.426;2023-07-08T13:27:08;4.70;;;4.40;;
4756;SDS011;2392;52.578;13.426;2023-07-08T13:29:40;4.23;;;3.93;;
4756;SDS011;2392;52.578;13.426;2023-07-08T13:32:09;5.00;;;4.60;;
4756;SDS011;2392;52.578;13.426;2023-07-08T13:34:36;5.93;;;4.90;;
4756;SDS011;2392;52.578;13.426;2023-07-08T13:37:08;5.17;;;4.73;;
4756;SDS011;2392;52.578;13.426;2023-07-08T13:39:37;5.07;;;4.60;;
4756;SDS011;2392;52.578;13.426;2023-07-08T13:42:07;5.27;;;4.87;;
4756;SDS011;2392;52.578;13.426;2023-07-08T13:44:35;5.27;;;4.87;;
4756;SDS011;2392;52.578;13.426;2023-07-08T13:47:19;4.70;;;4.50;;
4756;SDS011;2392;52.578;13.426;2023-07-08T13:49:54;4.73;;;4.43;;
4756;SDS011;2392;52.578;13.426;2023-07-08T13:52:26;5.10;;;4.70;;
4756;SDS011;2392;52.578;13.426;2023-07-08T13:54:53;4.90;;;4.00;;
4756;SDS011;2392;52.578;13.426;2023-07-08T13:57:31;4.70;;;4.20;;
4756;SDS011;2392;52.578;13.426;2023-07-08T14:00:00;4.70;;;4.40;;
4756;SDS011;2392;52.578;13.426;2023-07-08T14:02:37;4.93;;;4.50;;
4756;SDS011;2392;52.578;13.426;2023-07-08T14:05:08;5.00;;;4.80;;
4756;SDS011;2392;52.578;13.426;2023-07-08T14:07:40;4.70;;;4.50;;
4756;SDS011;2392;52.578;13.426;2023-07-08T14:10:09;4.50;;;4.30;;
4756;SDS011;2392;52.578;13.426;2023-07-08T14:12:39;4.60;;;4.40;;
4756;SDS011;2392;52.578;13.426;2023-07-08T14:15:08;4.93;;;4.73;;
4756;SDS011;2392;52.578;13.426;2023-07-08T14:17:38;5.00;;;4.70;;
4756;SDS011;2392;52.578;13.426;2023-07-08T14:20:08;4.80;;;4.50;;
4756;SDS011;2392;52.578;13.426;2023-07-08T14:22:38;6.03;;;5.07;;
4756;SDS011;2392;52.578;13.426;2023-07-08T14:25:06;5.17;;;4.80;;
4756;SDS011;2392;52.578;13.426;2023-07-08T14:27:35;5.07;;;4.77;;
4756;SDS011;2392;52.578;13.426;2023-07-08T14:30:04;4.70;;;4.40;;
4756;SDS011;2392;52.578;13.426;2023-07-08T14:32:34;5.13;;;4.83;;
4756;SDS011;2392;52.578;13.426;2023-07-08T14:35:08;4.87;;;4.57;;
4756;SDS011;2392;52.578;13.426;2023-07-08T14:37:41;4.53;;;4.33;;
4756;SDS011;2392;52.578;13.426;2023-07-08T14:40:22;5.13;;;4.67;;
4756;SDS011;2392;52.578;13.426;2023-07-08T14:42:52;5.10;;;4.80;;
4756;SDS011;2392;52.578;13.426;2023-07-08T14:45:27;4.67;;;4.27;;
4756;SDS011;2392;52.578;13.426;2023-07-08T14:47:56;5.30;;;4.80;;
4756;SDS011;2392;52.578;13.426;2023-07-08T14:50:23;4.50;;;4.30;;
4756;SDS011;2392;52.578;13.426;2023-07-08T14:52:54;4.90;;;4.60;;
4756;SDS011;2392;52.578;13.426;2023-07-08T14:55:21;4.60;;;4.20;;
4756;SDS011;2392;52.578;13.426;2023-07-08T14:57:49;5.07;;;4.77;;
4756;SDS011;2392;52.578;13.426;2023-07-08T15:00:18;5.67;;;5.17;;
4756;SDS011;2392;52.578;13.426;2023-07-08T15:02:47;5.20;;;4.80;;
4756;SDS011;2392;52.578;13.426;2023-07-08T15:05:17;5.27;;;4.87;;
4756;SDS011;2392;52.578;13.426;2023-07-08T15:07:48;4.50;;;4.30;;
4756;SDS011;2392;52.578;13.426;2023-07-08T15:10:15;5.20;;;4.90;;
4756;SDS011;2392;52.578;13.426;2023-07-08T15:12:43;4.93;;;4.67;;
4756;SDS011;2392;52.578;13.426;2023-07-08T15:15:14;5.60;;;5.20;;
4756;SDS011;2392;52.578;13.426;2023-07-08T15:17:43;4.73;;;4.40;;
4756;SDS011;2392;52.578;13.426;2023-07-08T15:20:13;10.37;;;4.97;;
4756;SDS011;2392;52.578;13.426;2023-07-08T15:22:44;4.53;;;4.10;;
4756;SDS011;2392;52.578;13.426;2023-07-08T15:25:11;8.20;;;4.60;;